sensor_id;sensor_type;location;lat;lon;timestamp;pressure;altitude;pressure_sealevel;temperature;humidity
41306;BME280;27051;50.376;19.152;2023-05-19T00:02:23;99101.18;;;11.21;61.55
41306;BME280;27051;50.376;19.152;2023-05-19T00:04:50;99099.95;;;11.23;61.52
41306;BME280;27051;50.376;19.152;2023-05-19T00:07:17;99096.81;;;11.23;61.65
41306;BME280;27051;50.376;19.152;2023-05-19T00:09:44;99093.68;;;11.25;61.58
41306;BME280;27051;50.376;19.152;2023-05-19T00:12:11;99089.38;;;11.26;61.67
41306;BME280;27051;50.376;19.152;2023-05-19T00:14:38;99091.74;;;11.25;61.64
41306;BME280;27051;50.376;19.152;2023-05-19T00:17:06;99090.92;;;11.21;61.53
41306;BME280;27051;50.376;19.152;2023-05-19T00:19:32;99091.55;;;11.16;61.70
41306;BME280;27051;50.376;19.152;2023-05-19T00:21:59;99087.48;;;11.16;61.87
41306;BME280;27051;50.376;19.152;2023-05-19T00:24:26;99088.74;;;11.15;61.87
41306;BME280;27051;50.376;19.152;2023-05-19T00:26:53;99087.83;;;11.17;61.97
41306;BME280;27051;50.376;19.152;2023-05-19T00:29:19;99080.55;;;11.12;61.91
41306;BME280;27051;50.376;19.152;2023-05-19T00:31:46;99076.51;;;11.07;62.02
41306;BME280;27051;50.376;19.152;2023-05-19T00:34:12;99072.86;;;11.08;62.05
41306;BME280;27051;50.376;19.152;2023-05-19T00:36:39;99076.92;;;11.04;62.08
41306;BME280;27051;50.376;19.152;2023-05-19T00:39:06;99072.64;;;11.05;62.00
41306;BME280;27051;50.376;19.152;2023-05-19T00:41:32;99075.68;;;11.05;62.11
41306;BME280;27051;50.376;19.152;2023-05-19T00:43:59;99074.67;;;11.05;62.03
41306;BME280;27051;50.376;19.152;2023-05-19T00:46:26;99073.41;;;11.08;62.18
41306;BME280;27051;50.376;19.152;2023-05-19T00:48:52;99065.53;;;11.07;62.19
41306;BME280;27051;50.376;19.152;2023-05-19T00:51:19;99066.48;;;11.08;62.35
41306;BME280;27051;50.376;19.152;2023-05-19T00:53:47;99062.46;;;11.09;62.27
41306;BME280;27051;50.376;19.152;2023-05-19T00:56:14;99062.80;;;11.16;62.46
41306;BME280;27051;50.376;19.152;2023-05-19T00:58:49;99062.38;;;11.20;62.41
41306;BME280;27051;50.376;19.152;2023-05-19T01:01:17;99062.25;;;11.20;62.42
41306;BME280;27051;50.376;19.152;2023-05-19T01:03:50;99059.34;;;11.26;62.51
41306;BME280;27051;50.376;19.152;2023-05-19T01:06:17;99057.55;;;11.31;62.43
41306;BME280;27051;50.376;19.152;2023-05-19T01:08:44;99054.23;;;11.25;62.28
41306;BME280;27051;50.376;19.152;2023-05-19T01:11:10;99054.30;;;11.25;62.40
41306;BME280;27051;50.376;19.152;2023-05-19T01:13:37;99055.75;;;11.23;62.45
41306;BME280;27051;50.376;19.152;2023-05-19T01:16:23;99053.86;;;11.22;62.40
41306;BME280;27051;50.376;19.152;2023-05-19T01:24:22;99058.86;;;11.26;62.26
41306;BME280;27051;50.376;19.152;2023-05-19T01:27:15;99054.87;;;11.24;62.48
41306;BME280;27051;50.376;19.152;2023-05-19T01:32:23;99053.03;;;11.26;62.48
41306;BME280;27051;50.376;19.152;2023-05-19T01:34:51;99049.40;;;11.22;62.45
41306;BME280;27051;50.376;19.152;2023-05-19T01:37:19;99048.67;;;11.18;62.51
41306;BME280;27051;50.376;19.152;2023-05-19T01:39:47;99049.11;;;11.21;62.55
41306;BME280;27051;50.376;19.152;2023-05-19T01:42:14;99047.05;;;11.21;62.60
41306;BME280;27051;50.376;19.152;2023-05-19T01:44:41;99047.81;;;11.19;62.52
41306;BME280;27051;50.376;19.152;2023-05-19T01:47:08;99050.20;;;11.17;62.50
41306;BME280;27051;50.376;19.152;2023-05-19T01:49:35;99048.59;;;11.12;62.51
41306;BME280;27051;50.376;19.152;2023-05-19T01:52:02;99049.44;;;11.11;62.80
41306;BME280;27051;50.376;19.152;2023-05-19T01:54:29;99049.29;;;11.14;62.75
41306;BME280;27051;50.376;19.152;2023-05-19T02:02:41;99027.81;;;11.15;62.80
41306;BME280;27051;50.376;19.152;2023-05-19T02:05:29;99031.08;;;11.13;62.71
41306;BME280;27051;50.376;19.152;2023-05-19T02:08:08;99033.42;;;11.08;62.89
41306;BME280;27051;50.376;19.152;2023-05-19T02:10:40;99028.41;;;11.12;62.96
41306;BME280;27051;50.376;19.152;2023-05-19T02:13:10;99027.34;;;11.12;62.86
41306;BME280;27051;50.376;19.152;2023-05-19T02:15:40;99027.55;;;11.09;62.85
41306;BME280;27051;50.376;19.152;2023-05-19T02:18:09;99028.88;;;11.07;62.86
41306;BME280;27051;50.376;19.152;2023-05-19T02:20:37;99020.39;;;11.11;62.85
41306;BME280;27051;50.376;19.152;2023-05-19T02:23:04;99019.36;;;11.14;62.96
41306;BME280;27051;50.376;19.152;2023-05-19T02:25:31;99012.63;;;11.16;63.04
41306;BME280;27051;50.376;19.152;2023-05-19T02:27:57;99011.25;;;11.17;63.00
41306;BME280;27051;50.376;19.152;2023-05-19T02:30:24;99008.02;;;11.20;62.99
41306;BME280;27051;50.376;19.152;2023-05-19T02:32:51;99002.48;;;11.22;62.92
41306;BME280;27051;50.376;19.152;2023-05-19T02:35:17;98998.75;;;11.19;62.94
41306;BME280;27051;50.376;19.152;2023-05-19T02:37:44;99000.36;;;11.17;62.97
41306;BME280;27051;50.376;19.152;2023-05-19T02:40:11;99002.91;;;11.15;62.92
41306;BME280;27051;50.376;19.152;2023-05-19T02:42:37;98997.02;;;11.18;63.05
41306;BME280;27051;50.376;19.152;2023-05-19T02:45:04;98998.83;;;11.13;62.89
41306;BME280;27051;50.376;19.152;2023-05-19T02:47:31;98993.14;;;11.06;62.95
41306;BME280;27051;50.376;19.152;2023-05-19T02:49:58;98994.45;;;11.04;63.11
41306;BME280;27051;50.376;19.152;2023-05-19T02:52:24;98994.68;;;10.99;62.93
41306;BME280;27051;50.376;19.152;2023-05-19T02:54:51;98997.85;;;10.97;63.04
41306;BME280;27051;50.376;19.152;2023-05-19T02:57:17;98998.73;;;10.98;63.13
41306;BME280;27051;50.376;19.152;2023-05-19T02:59:53;98996.52;;;11.04;63.28
41306;BME280;27051;50.376;19.152;2023-05-19T03:02:20;98997.45;;;11.08;63.16
41306;BME280;27051;50.376;19.152;2023-05-19T03:04:47;98998.66;;;11.05;63.15
41306;BME280;27051;50.376;19.152;2023-05-19T03:07:13;99008.66;;;11.04;63.09
41306;BME280;27051;50.376;19.152;2023-05-19T03:09:41;99013.77;;;11.03;63.15
41306;BME280;27051;50.376;19.152;2023-05-19T03:12:08;99016.50;;;11.06;63.14
41306;BME280;27051;50.376;19.152;2023-05-19T03:14:34;99014.52;;;11.06;63.19
41306;BME280;27051;50.376;19.152;2023-05-19T03:17:02;99016.82;;;11.04;63.02
41306;BME280;27051;50.376;19.152;2023-05-19T03:19:29;99017.02;;;11.00;63.10
41306;BME280;27051;50.376;19.152;2023-05-19T03:21:56;99015.27;;;10.96;63.12
41306;BME280;27051;50.376;19.152;2023-05-19T03:24:22;99014.77;;;10.92;63.12
41306;BME280;27051;50.376;19.152;2023-05-19T03:26:49;99015.16;;;10.91;63.33
41306;BME280;27051;50.376;19.152;2023-05-19T03:29:16;99014.13;;;10.93;63.32
41306;BME280;27051;50.376;19.152;2023-05-19T03:31:45;99013.54;;;10.96;63.46
41306;BME280;27051;50.376;19.152;2023-05-19T03:34:12;99010.17;;;11.03;63.51
41306;BME280;27051;50.376;19.152;2023-05-19T03:36:48;99012.08;;;11.08;63.31
41306;BME280;27051;50.376;19.152;2023-05-19T03:39:15;99012.16;;;11.08;63.39
41306;BME280;27051;50.376;19.152;2023-05-19T03:41:41;99013.58;;;11.10;63.39
41306;BME280;27051;50.376;19.152;2023-05-19T03:44:08;99018.39;;;11.13;63.36
41306;BME280;27051;50.376;19.152;2023-05-19T03:46:35;99023.95;;;11.12;63.30
41306;BME280;27051;50.376;19.152;2023-05-19T03:49:01;99025.96;;;11.15;63.44
41306;BME280;27051;50.376;19.152;2023-05-19T03:51:28;99024.10;;;11.20;63.46
41306;BME280;27051;50.376;19.152;2023-05-19T03:53:55;99024.10;;;11.24;63.46
41306;BME280;27051;50.376;19.152;2023-05-19T03:56:21;99024.66;;;11.29;63.49
41306;BME280;27051;50.376;19.152;2023-05-19T03:58:48;99021.00;;;11.36;63.49
41306;BME280;27051;50.376;19.152;2023-05-19T04:01:15;99016.71;;;11.38;63.34
41306;BME280;27051;50.376;19.152;2023-05-19T04:03:41;99018.52;;;11.39;63.36
41306;BME280;27051;50.376;19.152;2023-05-19T04:06:08;99018.76;;;11.43;63.40
41306;BME280;27051;50.376;19.152;2023-05-19T04:08:35;99017.67;;;11.45;63.44
41306;BME280;27051;50.376;19.152;2023-05-19T04:11:01;99022.48;;;11.52;63.57
41306;BME280;27051;50.376;19.152;2023-05-19T04:13:31;99017.94;;;11.61;63.57
41306;BME280;27051;50.376;19.152;2023-05-19T04:15:58;99016.72;;;11.65;63.34
41306;BME280;27051;50.376;19.152;2023-05-19T04:18:25;99020.17;;;11.71;63.44
41306;BME280;27051;50.376;19.152;2023-05-19T04:20:52;99022.63;;;11.74;63.22
41306;BME280;27051;50.376;19.152;2023-05-19T04:23:18;99021.45;;;11.76;63.25
41306;BME280;27051;50.376;19.152;2023-05-19T04:25:45;99022.92;;;11.80;63.40
41306;BME280;27051;50.376;19.152;2023-05-19T04:28:11;99022.77;;;11.91;63.40
41306;BME280;27051;50.376;19.152;2023-05-19T04:30:38;99025.16;;;12.01;63.41
41306;BME280;27051;50.376;19.152;2023-05-19T04:33:05;99022.40;;;12.09;63.43
41306;BME280;27051;50.376;19.152;2023-05-19T04:35:31;99021.61;;;12.17;63.27
41306;BME280;27051;50.376;19.152;2023-05-19T04:37:58;99023.32;;;12.25;63.05
41306;BME280;27051;50.376;19.152;2023-05-19T04:40:25;99023.89;;;12.28;63.13
41306;BME280;27051;50.376;19.152;2023-05-19T04:42:51;99025.13;;;12.34;62.99
41306;BME280;27051;50.376;19.152;2023-05-19T04:45:19;99023.69;;;12.35;62.89
41306;BME280;27051;50.376;19.152;2023-05-19T04:47:45;99027.73;;;12.33;62.87
41306;BME280;27051;50.376;19.152;2023-05-19T04:50:21;99026.08;;;12.33;62.93
41306;BME280;27051;50.376;19.152;2023-05-19T04:52:48;99030.40;;;12.37;62.95
41306;BME280;27051;50.376;19.152;2023-05-19T04:55:15;99034.40;;;12.37;63.00
41306;BME280;27051;50.376;19.152;2023-05-19T04:57:41;99032.72;;;12.37;62.96
41306;BME280;27051;50.376;19.152;2023-05-19T05:00:08;99040.38;;;12.40;62.86
41306;BME280;27051;50.376;19.152;2023-05-19T05:02:35;99041.77;;;12.43;63.00
41306;BME280;27051;50.376;19.152;2023-05-19T05:05:02;99041.21;;;12.46;62.94
41306;BME280;27051;50.376;19.152;2023-05-19T05:07:29;99042.77;;;12.49;62.86
41306;BME280;27051;50.376;19.152;2023-05-19T05:09:55;99040.08;;;12.49;62.81
41306;BME280;27051;50.376;19.152;2023-05-19T05:12:22;99044.92;;;12.48;62.87
41306;BME280;27051;50.376;19.152;2023-05-19T05:14:49;99039.86;;;12.47;62.97
41306;BME280;27051;50.376;19.152;2023-05-19T05:17:16;99039.31;;;12.47;62.78
41306;BME280;27051;50.376;19.152;2023-05-19T05:19:43;99041.19;;;12.47;62.89
41306;BME280;27051;50.376;19.152;2023-05-19T05:22:10;99042.96;;;12.46;62.93
41306;BME280;27051;50.376;19.152;2023-05-19T05:24:37;99044.59;;;12.48;62.93
41306;BME280;27051;50.376;19.152;2023-05-19T05:27:04;99047.14;;;12.48;62.71
41306;BME280;27051;50.376;19.152;2023-05-19T05:29:31;99046.66;;;12.47;62.79
41306;BME280;27051;50.376;19.152;2023-05-19T05:31:57;99046.33;;;12.49;62.75
41306;BME280;27051;50.376;19.152;2023-05-19T05:34:24;99048.02;;;12.49;62.77
41306;BME280;27051;50.376;19.152;2023-05-19T05:36:51;99046.10;;;12.51;62.89
41306;BME280;27051;50.376;19.152;2023-05-19T05:39:17;99045.36;;;12.56;62.97
41306;BME280;27051;50.376;19.152;2023-05-19T05:41:44;99046.16;;;12.59;62.94
41306;BME280;27051;50.376;19.152;2023-05-19T05:44:23;99051.54;;;12.65;62.94
41306;BME280;27051;50.376;19.152;2023-05-19T05:46:50;99055.05;;;12.68;62.87
41306;BME280;27051;50.376;19.152;2023-05-19T05:49:17;99050.33;;;12.71;62.69
41306;BME280;27051;50.376;19.152;2023-05-19T05:51:44;99048.27;;;12.74;62.56
41306;BME280;27051;50.376;19.152;2023-05-19T05:54:11;99048.52;;;12.75;62.59
41306;BME280;27051;50.376;19.152;2023-05-19T05:56:38;99046.38;;;12.80;62.71
41306;BME280;27051;50.376;19.152;2023-05-19T05:59:05;99046.73;;;12.83;62.64
41306;BME280;27051;50.376;19.152;2023-05-19T06:01:32;99042.96;;;12.90;62.72
41306;BME280;27051;50.376;19.152;2023-05-19T06:03:59;99041.42;;;12.96;62.64
41306;BME280;27051;50.376;19.152;2023-05-19T06:06:26;99044.91;;;13.06;62.61
41306;BME280;27051;50.376;19.152;2023-05-19T06:08:53;99052.58;;;13.09;62.25
41306;BME280;27051;50.376;19.152;2023-05-19T06:11:19;99056.83;;;13.09;62.31
41306;BME280;27051;50.376;19.152;2023-05-19T06:13:46;99058.70;;;13.10;62.15
41306;BME280;27051;50.376;19.152;2023-05-19T06:16:13;99060.79;;;13.10;62.13
41306;BME280;27051;50.376;19.152;2023-05-19T06:18:39;99063.00;;;13.11;62.15
41306;BME280;27051;50.376;19.152;2023-05-19T06:21:06;99065.14;;;13.15;62.24
41306;BME280;27051;50.376;19.152;2023-05-19T06:23:32;99071.04;;;13.14;62.12
41306;BME280;27051;50.376;19.152;2023-05-19T06:25:59;99069.42;;;13.16;62.27
41306;BME280;27051;50.376;19.152;2023-05-19T06:28:26;99070.55;;;13.22;62.33
41306;BME280;27051;50.376;19.152;2023-05-19T06:30:52;99070.84;;;13.28;62.40
41306;BME280;27051;50.376;19.152;2023-05-19T06:33:19;99077.14;;;13.31;62.23
41306;BME280;27051;50.376;19.152;2023-05-19T06:35:46;99072.80;;;13.30;61.83
41306;BME280;27051;50.376;19.152;2023-05-19T06:38:12;99072.73;;;13.33;62.00
41306;BME280;27051;50.376;19.152;2023-05-19T06:40:39;99068.04;;;13.43;62.20
41306;BME280;27051;50.376;19.152;2023-05-19T06:43:06;99064.50;;;13.54;61.97
41306;BME280;27051;50.376;19.152;2023-05-19T06:45:32;99068.73;;;13.63;62.16
41306;BME280;27051;50.376;19.152;2023-05-19T06:47:59;99065.75;;;13.73;61.86
41306;BME280;27051;50.376;19.152;2023-05-19T06:50:26;99063.88;;;13.80;61.76
41306;BME280;27051;50.376;19.152;2023-05-19T06:52:52;99060.36;;;13.88;61.62
41306;BME280;27051;50.376;19.152;2023-05-19T06:55:19;99062.17;;;13.97;61.56
41306;BME280;27051;50.376;19.152;2023-05-19T06:57:46;99060.04;;;14.02;61.36
41306;BME280;27051;50.376;19.152;2023-05-19T07:00:13;99066.83;;;14.07;61.46
41306;BME280;27051;50.376;19.152;2023-05-19T07:02:40;99063.15;;;14.16;61.53
41306;BME280;27051;50.376;19.152;2023-05-19T07:05:07;99060.90;;;14.25;61.30
41306;BME280;27051;50.376;19.152;2023-05-19T07:07:33;99057.98;;;14.38;61.57
41306;BME280;27051;50.376;19.152;2023-05-19T07:10:00;99054.85;;;14.55;61.27
41306;BME280;27051;50.376;19.152;2023-05-19T07:12:27;99054.52;;;14.70;61.04
41306;BME280;27051;50.376;19.152;2023-05-19T07:14:53;99052.97;;;14.78;60.78
41306;BME280;27051;50.376;19.152;2023-05-19T07:17:20;99054.09;;;14.82;60.38
41306;BME280;27051;50.376;19.152;2023-05-19T07:19:46;99055.10;;;14.82;60.42
41306;BME280;27051;50.376;19.152;2023-05-19T07:22:13;99052.36;;;14.86;60.57
41306;BME280;27051;50.376;19.152;2023-05-19T07:24:40;99053.39;;;14.92;60.26
41306;BME280;27051;50.376;19.152;2023-05-19T07:27:06;99050.36;;;15.06;60.26
41306;BME280;27051;50.376;19.152;2023-05-19T07:29:33;99053.68;;;15.17;60.16
41306;BME280;27051;50.376;19.152;2023-05-19T07:31:59;99053.11;;;15.25;60.01
41306;BME280;27051;50.376;19.152;2023-05-19T07:34:26;99050.75;;;15.35;60.00
41306;BME280;27051;50.376;19.152;2023-05-19T07:36:53;99055.63;;;15.48;60.08
41306;BME280;27051;50.376;19.152;2023-05-19T07:39:19;99055.84;;;15.55;59.61
41306;BME280;27051;50.376;19.152;2023-05-19T07:41:46;99057.04;;;15.57;59.37
41306;BME280;27051;50.376;19.152;2023-05-19T07:44:12;99057.36;;;15.55;59.35
41306;BME280;27051;50.376;19.152;2023-05-19T07:46:39;99062.30;;;15.42;59.17
41306;BME280;27051;50.376;19.152;2023-05-19T07:49:06;99065.48;;;15.33;59.19
41306;BME280;27051;50.376;19.152;2023-05-19T07:51:32;99066.17;;;15.27;59.33
41306;BME280;27051;50.376;19.152;2023-05-19T07:53:59;99066.98;;;15.23;59.38
41306;BME280;27051;50.376;19.152;2023-05-19T07:56:25;99073.05;;;15.21;59.31
41306;BME280;27051;50.376;19.152;2023-05-19T07:58:52;99068.93;;;15.12;58.85
41306;BME280;27051;50.376;19.152;2023-05-19T08:01:19;99069.81;;;15.05;59.57
41306;BME280;27051;50.376;19.152;2023-05-19T08:03:45;99071.23;;;15.00;58.94
41306;BME280;27051;50.376;19.152;2023-05-19T08:06:12;99065.54;;;14.92;59.36
41306;BME280;27051;50.376;19.152;2023-05-19T08:08:38;99063.24;;;14.94;59.53
41306;BME280;27051;50.376;19.152;2023-05-19T08:11:05;99065.13;;;14.95;59.60
41306;BME280;27051;50.376;19.152;2023-05-19T08:13:32;99066.71;;;14.96;59.56
41306;BME280;27051;50.376;19.152;2023-05-19T08:15:59;99065.43;;;14.94;59.57
41306;BME280;27051;50.376;19.152;2023-05-19T08:18:26;99064.86;;;14.99;59.48
41306;BME280;27051;50.376;19.152;2023-05-19T08:20:52;99064.73;;;14.97;59.32
41306;BME280;27051;50.376;19.152;2023-05-19T08:23:20;99064.13;;;14.89;59.07
41306;BME280;27051;50.376;19.152;2023-05-19T08:25:47;99067.38;;;14.89;59.48
41306;BME280;27051;50.376;19.152;2023-05-19T08:28:13;99062.20;;;14.92;59.55
41306;BME280;27051;50.376;19.152;2023-05-19T08:30:40;99062.27;;;15.00;59.51
41306;BME280;27051;50.376;19.152;2023-05-19T08:33:07;99063.25;;;15.11;59.59
41306;BME280;27051;50.376;19.152;2023-05-19T08:35:33;99064.08;;;15.22;59.44
41306;BME280;27051;50.376;19.152;2023-05-19T08:38:00;99066.77;;;15.29;59.61
41306;BME280;27051;50.376;19.152;2023-05-19T08:40:27;99072.90;;;15.42;59.40
41306;BME280;27051;50.376;19.152;2023-05-19T08:42:53;99075.37;;;15.48;59.21
41306;BME280;27051;50.376;19.152;2023-05-19T08:45:29;99079.81;;;15.49;58.94
41306;BME280;27051;50.376;19.152;2023-05-19T08:47:56;99083.44;;;15.46;58.91
41306;BME280;27051;50.376;19.152;2023-05-19T08:50:28;99082.52;;;15.43;58.86
41306;BME280;27051;50.376;19.152;2023-05-19T08:53:11;99079.20;;;15.37;58.70
41306;BME280;27051;50.376;19.152;2023-05-19T08:58:24;99079.78;;;15.36;58.86
41306;BME280;27051;50.376;19.152;2023-05-19T09:00:51;99076.79;;;15.43;58.99
41306;BME280;27051;50.376;19.152;2023-05-19T09:03:19;99072.95;;;15.56;58.95
41306;BME280;27051;50.376;19.152;2023-05-19T09:05:47;99072.29;;;15.69;59.04
41306;BME280;27051;50.376;19.152;2023-05-19T09:08:14;99073.00;;;15.78;58.60
41306;BME280;27051;50.376;19.152;2023-05-19T09:10:40;99072.73;;;15.86;58.78
41306;BME280;27051;50.376;19.152;2023-05-19T09:13:07;99072.12;;;15.96;58.57
41306;BME280;27051;50.376;19.152;2023-05-19T09:15:34;99065.50;;;16.01;58.41
41306;BME280;27051;50.376;19.152;2023-05-19T09:18:08;99068.18;;;16.03;58.26
41306;BME280;27051;50.376;19.152;2023-05-19T09:20:36;99073.20;;;16.10;58.35
41306;BME280;27051;50.376;19.152;2023-05-19T09:23:04;99077.92;;;16.10;58.14
41306;BME280;27051;50.376;19.152;2023-05-19T09:25:31;99076.52;;;16.12;58.06
41306;BME280;27051;50.376;19.152;2023-05-19T09:27:58;99074.03;;;16.12;58.09
41306;BME280;27051;50.376;19.152;2023-05-19T09:30:24;99075.59;;;16.13;58.12
41306;BME280;27051;50.376;19.152;2023-05-19T09:32:51;99074.55;;;16.17;58.09
41306;BME280;27051;50.376;19.152;2023-05-19T09:35:18;99074.02;;;16.28;58.18
41306;BME280;27051;50.376;19.152;2023-05-19T09:37:44;99074.09;;;16.41;57.90
41306;BME280;27051;50.376;19.152;2023-05-19T09:40:14;99073.59;;;16.43;57.61
41306;BME280;27051;50.376;19.152;2023-05-19T09:42:41;99075.05;;;16.43;57.51
41306;BME280;27051;50.376;19.152;2023-05-19T09:45:08;99078.86;;;16.37;57.21
41306;BME280;27051;50.376;19.152;2023-05-19T09:47:36;99076.13;;;16.28;57.58
41306;BME280;27051;50.376;19.152;2023-05-19T09:50:05;99079.90;;;16.27;57.80
41306;BME280;27051;50.376;19.152;2023-05-19T09:52:37;99078.27;;;16.27;57.95
41306;BME280;27051;50.376;19.152;2023-05-19T09:55:05;99078.08;;;16.33;57.67
41306;BME280;27051;50.376;19.152;2023-05-19T09:57:35;99076.45;;;16.37;57.77
41306;BME280;27051;50.376;19.152;2023-05-19T10:00:04;99075.72;;;16.35;57.53
41306;BME280;27051;50.376;19.152;2023-05-19T10:02:31;99077.55;;;16.34;57.48
41306;BME280;27051;50.376;19.152;2023-05-19T10:04:59;99074.63;;;16.31;57.33
41306;BME280;27051;50.376;19.152;2023-05-19T10:07:26;99074.76;;;16.30;57.34
41306;BME280;27051;50.376;19.152;2023-05-19T10:09:53;99072.43;;;16.30;57.46
41306;BME280;27051;50.376;19.152;2023-05-19T10:12:20;99073.09;;;16.32;57.51
41306;BME280;27051;50.376;19.152;2023-05-19T10:14:48;99064.86;;;16.34;57.38
41306;BME280;27051;50.376;19.152;2023-05-19T10:17:15;99063.21;;;16.41;57.39
41306;BME280;27051;50.376;19.152;2023-05-19T10:19:42;99063.14;;;16.45;57.40
41306;BME280;27051;50.376;19.152;2023-05-19T10:22:09;99058.95;;;16.48;57.44
41306;BME280;27051;50.376;19.152;2023-05-19T10:24:36;99058.71;;;16.58;57.43
41306;BME280;27051;50.376;19.152;2023-05-19T10:27:06;99058.11;;;16.66;57.30
41306;BME280;27051;50.376;19.152;2023-05-19T10:29:38;99060.54;;;16.72;56.91
41306;BME280;27051;50.376;19.152;2023-05-19T10:32:12;99060.09;;;16.64;56.85
41306;BME280;27051;50.376;19.152;2023-05-19T10:37:30;99056.44;;;16.49;57.21
41306;BME280;27051;50.376;19.152;2023-05-19T10:40:08;99056.83;;;16.49;57.30
41306;BME280;27051;50.376;19.152;2023-05-19T10:42:40;99053.14;;;16.55;57.34
41306;BME280;27051;50.376;19.152;2023-05-19T10:45:21;99058.52;;;16.64;57.36
41306;BME280;27051;50.376;19.152;2023-05-19T10:47:49;99056.02;;;16.70;56.96
41306;BME280;27051;50.376;19.152;2023-05-19T10:50:16;99057.34;;;16.66;56.91
41306;BME280;27051;50.376;19.152;2023-05-19T10:52:51;99055.26;;;16.66;56.93
41306;BME280;27051;50.376;19.152;2023-05-19T10:55:44;99054.70;;;16.62;57.08
41306;BME280;27051;50.376;19.152;2023-05-19T10:58:11;99054.55;;;16.63;56.96
41306;BME280;27051;50.376;19.152;2023-05-19T11:00:38;99051.95;;;16.68;57.03
41306;BME280;27051;50.376;19.152;2023-05-19T11:03:15;99049.15;;;16.79;57.02
41306;BME280;27051;50.376;19.152;2023-05-19T11:05:42;99051.60;;;16.92;57.05
41306;BME280;27051;50.376;19.152;2023-05-19T11:08:10;99048.89;;;17.04;56.83
41306;BME280;27051;50.376;19.152;2023-05-19T11:10:37;99045.63;;;17.16;56.72
41306;BME280;27051;50.376;19.152;2023-05-19T11:13:04;99045.95;;;17.26;56.61
41306;BME280;27051;50.376;19.152;2023-05-19T11:15:34;99042.27;;;17.32;56.49
41306;BME280;27051;50.376;19.152;2023-05-19T11:18:01;99045.52;;;17.36;56.43
41306;BME280;27051;50.376;19.152;2023-05-19T11:20:29;99048.02;;;17.37;56.25
41306;BME280;27051;50.376;19.152;2023-05-19T11:23:08;99050.73;;;17.35;56.08
41306;BME280;27051;50.376;19.152;2023-05-19T11:28:10;99047.41;;;17.42;56.32
41306;BME280;27051;50.376;19.152;2023-05-19T11:30:40;99055.95;;;17.46;56.21
41306;BME280;27051;50.376;19.152;2023-05-19T11:33:07;99054.89;;;17.47;56.04
41306;BME280;27051;50.376;19.152;2023-05-19T11:35:34;99059.25;;;17.57;56.02
41306;BME280;27051;50.376;19.152;2023-05-19T11:38:01;99059.27;;;17.63;55.80
41306;BME280;27051;50.376;19.152;2023-05-19T11:40:29;99056.17;;;17.68;55.70
41306;BME280;27051;50.376;19.152;2023-05-19T11:42:55;99055.96;;;17.73;55.62
41306;BME280;27051;50.376;19.152;2023-05-19T11:45:26;99053.63;;;17.81;55.50
41306;BME280;27051;50.376;19.152;2023-05-19T11:47:54;99053.82;;;17.92;55.43
41306;BME280;27051;50.376;19.152;2023-05-19T11:50:21;99057.81;;;18.05;55.71
41306;BME280;27051;50.376;19.152;2023-05-19T11:52:49;99055.08;;;18.25;55.40
41306;BME280;27051;50.376;19.152;2023-05-19T11:55:17;99049.48;;;18.36;55.18
41306;BME280;27051;50.376;19.152;2023-05-19T11:57:57;99047.77;;;18.42;55.13
41306;BME280;27051;50.376;19.152;2023-05-19T12:00:25;99045.08;;;18.56;54.99
41306;BME280;27051;50.376;19.152;2023-05-19T12:02:52;99047.46;;;18.65;54.96
41306;BME280;27051;50.376;19.152;2023-05-19T12:05:29;99047.27;;;18.68;54.79
41306;BME280;27051;50.376;19.152;2023-05-19T12:07:56;99047.13;;;18.70;54.73
41306;BME280;27051;50.376;19.152;2023-05-19T12:10:26;99050.42;;;18.73;54.62
41306;BME280;27051;50.376;19.152;2023-05-19T12:12:53;99049.08;;;18.75;54.40
41306;BME280;27051;50.376;19.152;2023-05-19T12:15:21;99045.77;;;18.77;54.51
41306;BME280;27051;50.376;19.152;2023-05-19T12:17:55;99042.09;;;18.82;54.43
41306;BME280;27051;50.376;19.152;2023-05-19T12:20:23;99041.65;;;18.91;54.21
41306;BME280;27051;50.376;19.152;2023-05-19T12:22:57;99038.84;;;18.97;54.27
41306;BME280;27051;50.376;19.152;2023-05-19T12:25:24;99041.02;;;19.05;54.25
41306;BME280;27051;50.376;19.152;2023-05-19T12:27:50;99041.65;;;19.05;53.65
41306;BME280;27051;50.376;19.152;2023-05-19T12:30:17;99039.91;;;18.96;53.55
41306;BME280;27051;50.376;19.152;2023-05-19T12:32:52;99033.02;;;18.84;53.63
41306;BME280;27051;50.376;19.152;2023-05-19T12:35:19;99029.67;;;18.85;53.96
41306;BME280;27051;50.376;19.152;2023-05-19T12:37:46;99027.59;;;18.87;53.77
41306;BME280;27051;50.376;19.152;2023-05-19T12:40:18;99028.02;;;18.83;53.50
41306;BME280;27051;50.376;19.152;2023-05-19T12:42:46;99027.32;;;18.82;53.67
41306;BME280;27051;50.376;19.152;2023-05-19T12:45:13;99027.02;;;18.84;53.64
41306;BME280;27051;50.376;19.152;2023-05-19T12:47:39;99025.30;;;18.84;53.46
41306;BME280;27051;50.376;19.152;2023-05-19T12:50:08;99028.01;;;18.82;53.44
41306;BME280;27051;50.376;19.152;2023-05-19T12:52:43;99027.84;;;18.80;53.50
41306;BME280;27051;50.376;19.152;2023-05-19T12:55:10;99029.24;;;18.81;53.42
41306;BME280;27051;50.376;19.152;2023-05-19T12:57:38;99026.56;;;18.78;53.53
41306;BME280;27051;50.376;19.152;2023-05-19T13:00:15;99028.27;;;18.74;53.72
41306;BME280;27051;50.376;19.152;2023-05-19T13:05:21;99028.87;;;18.66;53.52
41306;BME280;27051;50.376;19.152;2023-05-19T13:10:33;99028.98;;;18.69;53.70
41306;BME280;27051;50.376;19.152;2023-05-19T13:13:00;99029.05;;;18.67;53.92
41306;BME280;27051;50.376;19.152;2023-05-19T13:15:29;99026.02;;;18.67;53.73
41306;BME280;27051;50.376;19.152;2023-05-19T13:17:57;99029.07;;;18.63;53.59
41306;BME280;27051;50.376;19.152;2023-05-19T13:20:23;99027.33;;;18.54;53.37
41306;BME280;27051;50.376;19.152;2023-05-19T13:22:51;99027.23;;;18.48;53.62